sensor_id;sensor_type;location;lat;lon;timestamp;pressure;altitude;pressure_sealevel;temperature;humidity
40788;BME280;26497;52.494;7.546;2023-07-16T00:00:14;100199.00;;;21.97;77.37
40788;BME280;26497;52.494;7.546;2023-07-16T00:02:45;100202.53;;;21.97;77.46
40788;BME280;26497;52.494;7.546;2023-07-16T00:05:12;100216.22;;;21.76;78.97
40788;BME280;26497;52.494;7.546;2023-07-16T00:07:39;100209.91;;;21.60;80.12
40788;BME280;26497;52.494;7.546;2023-07-16T00:10:07;100207.09;;;21.63;80.59
40788;BME280;26497;52.494;7.546;2023-07-16T00:12:34;100201.22;;;21.72;80.25
40788;BME280;26497;52.494;7.546;2023-07-16T00:15:01;100210.22;;;21.71;80.84
40788;BME280;26497;52.494;7.546;2023-07-16T00:17:28;100205.16;;;21.83;80.16
40788;BME280;26497;52.494;7.546;2023-07-16T00:19:57;100193.09;;;21.90;79.88
40788;BME280;26497;52.494;7.546;2023-07-16T00:22:24;100200.75;;;21.98;79.86
40788;BME280;26497;52.494;7.546;2023-07-16T00:24:51;100202.13;;;22.05;79.66
40788;BME280;26497;52.494;7.546;2023-07-16T00:27:19;100195.53;;;21.94;80.20
40788;BME280;26497;52.494;7.546;2023-07-16T00:29:45;100190.78;;;22.00;79.94
40788;BME280;26497;52.494;7.546;2023-07-16T00:32:12;100189.66;;;22.04;79.81
40788;BME280;26497;52.494;7.546;2023-07-16T00:34:39;100204.53;;;22.09;79.89
40788;BME280;26497;52.494;7.546;2023-07-16T00:37:08;100202.03;;;22.06;79.89
40788;BME280;26497;52.494;7.546;2023-07-16T00:39:35;100202.03;;;22.06;80.39
40788;BME280;26497;52.494;7.546;2023-07-16T00:42:02;100209.75;;;21.97;80.96
40788;BME280;26497;52.494;7.546;2023-07-16T00:44:29;100206.50;;;21.90;82.04
40788;BME280;26497;52.494;7.546;2023-07-16T00:46:57;100213.28;;;21.97;81.59
40788;BME280;26497;52.494;7.546;2023-07-16T00:49:25;100217.09;;;21.93;82.59
40788;BME280;26497;52.494;7.546;2023-07-16T00:51:52;100217.09;;;21.93;83.02
40788;BME280;26497;52.494;7.546;2023-07-16T00:54:21;100218.13;;;22.06;82.82
40788;BME280;26497;52.494;7.546;2023-07-16T00:56:49;100219.03;;;22.07;82.69
40788;BME280;26497;52.494;7.546;2023-07-16T00:59:16;100210.53;;;21.99;83.47
40788;BME280;26497;52.494;7.546;2023-07-16T01:01:43;100211.53;;;21.96;84.41
40788;BME280;26497;52.494;7.546;2023-07-16T01:04:10;100218.47;;;22.00;84.81
40788;BME280;26497;52.494;7.546;2023-07-16T01:06:41;100210.94;;;21.91;86.22
40788;BME280;26497;52.494;7.546;2023-07-16T01:09:10;100217.25;;;21.90;87.02
40788;BME280;26497;52.494;7.546;2023-07-16T01:11:44;100215.22;;;22.11;85.68
40788;BME280;26497;52.494;7.546;2023-07-16T01:14:13;100218.84;;;22.26;84.90
40788;BME280;26497;52.494;7.546;2023-07-16T01:16:41;100222.13;;;22.31;84.69
40788;BME280;26497;52.494;7.546;2023-07-16T01:19:09;100214.78;;;22.35;84.57
40788;BME280;26497;52.494;7.546;2023-07-16T01:21:42;100228.28;;;22.33;84.23
40788;BME280;26497;52.494;7.546;2023-07-16T01:24:59;100222.31;;;22.28;84.92
40788;BME280;26497;52.494;7.546;2023-07-16T01:27:50;100220.06;;;22.36;84.64
40788;BME280;26497;52.494;7.546;2023-07-16T01:30:25;100230.03;;;22.34;84.67
40788;BME280;26497;52.494;7.546;2023-07-16T01:32:53;100229.28;;;22.48;83.34
40788;BME280;26497;52.494;7.546;2023-07-16T01:35:21;100233.94;;;22.45;83.42
40788;BME280;26497;52.494;7.546;2023-07-16T01:37:49;100230.13;;;22.33;83.83
40788;BME280;26497;52.494;7.546;2023-07-16T01:40:15;100227.44;;;22.33;82.98
40788;BME280;26497;52.494;7.546;2023-07-16T01:42:43;100230.41;;;22.44;82.81
40788;BME280;26497;52.494;7.546;2023-07-16T01:45:10;100233.59;;;22.51;81.67
40788;BME280;26497;52.494;7.546;2023-07-16T01:47:45;100224.13;;;22.60;80.99
40788;BME280;26497;52.494;7.546;2023-07-16T01:50:16;100222.78;;;22.52;81.05
40788;BME280;26497;52.494;7.546;2023-07-16T01:52:43;100226.91;;;22.58;80.18
40788;BME280;26497;52.494;7.546;2023-07-16T01:55:10;100221.13;;;22.50;80.16
40788;BME280;26497;52.494;7.546;2023-07-16T01:57:37;100227.44;;;22.49;79.91
40788;BME280;26497;52.494;7.546;2023-07-16T02:00:13;100231.56;;;22.38;79.85
40788;BME280;26497;52.494;7.546;2023-07-16T02:02:41;100236.63;;;22.45;79.69
40788;BME280;26497;52.494;7.546;2023-07-16T02:05:08;100246.44;;;22.46;79.20
40788;BME280;26497;52.494;7.546;2023-07-16T02:07:35;100228.22;;;22.51;78.48
40788;BME280;26497;52.494;7.546;2023-07-16T02:10:04;100251.09;;;22.58;77.73
40788;BME280;26497;52.494;7.546;2023-07-16T02:12:31;100250.47;;;22.37;78.67
40788;BME280;26497;52.494;7.546;2023-07-16T02:14:58;100240.75;;;22.34;78.31
40788;BME280;26497;52.494;7.546;2023-07-16T02:17:25;100250.06;;;22.45;77.79
40788;BME280;26497;52.494;7.546;2023-07-16T02:19:54;100248.31;;;22.44;77.71
40788;BME280;26497;52.494;7.546;2023-07-16T02:22:21;100254.81;;;22.39;77.54
40788;BME280;26497;52.494;7.546;2023-07-16T02:24:48;100247.44;;;22.27;78.26
40788;BME280;26497;52.494;7.546;2023-07-16T02:27:14;100257.81;;;22.33;77.72
40788;BME280;26497;52.494;7.546;2023-07-16T02:29:41;100258.16;;;22.27;77.36
40788;BME280;26497;52.494;7.546;2023-07-16T02:32:11;100263.47;;;22.29;77.26
40788;BME280;26497;52.494;7.546;2023-07-16T02:34:38;100255.16;;;22.33;76.56
40788;BME280;26497;52.494;7.546;2023-07-16T02:37:07;100258.34;;;22.24;76.20
40788;BME280;26497;52.494;7.546;2023-07-16T02:39:34;100262.66;;;22.10;75.96
40788;BME280;26497;52.494;7.546;2023-07-16T02:42:04;100263.56;;;21.77;76.88
40788;BME280;26497;52.494;7.546;2023-07-16T02:44:31;100261.69;;;21.62;77.77
40788;BME280;26497;52.494;7.546;2023-07-16T02:46:58;100268.69;;;21.47;77.79
40788;BME280;26497;52.494;7.546;2023-07-16T02:49:25;100259.81;;;21.29;78.49
40788;BME280;26497;52.494;7.546;2023-07-16T02:51:52;100255.44;;;21.26;78.86
40788;BME280;26497;52.494;7.546;2023-07-16T02:54:21;100258.69;;;21.15;79.47
40788;BME280;26497;52.494;7.546;2023-07-16T02:56:48;100260.59;;;21.13;79.42
40788;BME280;26497;52.494;7.546;2023-07-16T02:59:15;100259.94;;;20.90;81.17
40788;BME280;26497;52.494;7.546;2023-07-16T03:01:41;100260.97;;;20.88;81.07
40788;BME280;26497;52.494;7.546;2023-07-16T03:04:09;100265.44;;;20.87;80.78
40788;BME280;26497;52.494;7.546;2023-07-16T03:06:36;100263.72;;;20.86;80.79
40788;BME280;26497;52.494;7.546;2023-07-16T03:09:06;100266.19;;;20.72;81.63
40788;BME280;26497;52.494;7.546;2023-07-16T03:11:34;100277.50;;;20.59;82.41
40788;BME280;26497;52.494;7.546;2023-07-16T03:14:01;100271.72;;;20.50;83.30
40788;BME280;26497;52.494;7.546;2023-07-16T03:16:28;100279.75;;;20.50;83.46
40788;BME280;26497;52.494;7.546;2023-07-16T03:18:55;100280.69;;;20.48;83.58
40788;BME280;26497;52.494;7.546;2023-07-16T03:21:22;100269.44;;;20.42;83.80
40788;BME280;26497;52.494;7.546;2023-07-16T03:23:49;100283.47;;;20.47;83.55
40788;BME280;26497;52.494;7.546;2023-07-16T03:26:16;100288.38;;;20.37;84.27
40788;BME280;26497;52.494;7.546;2023-07-16T03:28:45;100284.03;;;20.35;84.80
40788;BME280;26497;52.494;7.546;2023-07-16T03:31:12;100286.50;;;20.39;84.89
40788;BME280;26497;52.494;7.546;2023-07-16T03:33:39;100292.22;;;20.31;85.56
40788;BME280;26497;52.494;7.546;2023-07-16T03:36:06;100295.41;;;20.40;85.12
40788;BME280;26497;52.494;7.546;2023-07-16T03:38:33;100293.44;;;20.43;84.88
40788;BME280;26497;52.494;7.546;2023-07-16T03:41:00;100300.25;;;20.51;84.23
40788;BME280;26497;52.494;7.546;2023-07-16T03:43:27;100296.81;;;20.66;82.95
40788;BME280;26497;52.494;7.546;2023-07-16T03:45:56;100302.78;;;20.54;83.27
40788;BME280;26497;52.494;7.546;2023-07-16T03:48:23;100299.81;;;20.60;82.70
40788;BME280;26497;52.494;7.546;2023-07-16T03:50:50;100312.81;;;20.68;82.03
40788;BME280;26497;52.494;7.546;2023-07-16T03:53:17;100306.66;;;20.66;81.38
40788;BME280;26497;52.494;7.546;2023-07-16T03:55:44;100308.63;;;20.62;81.36
40788;BME280;26497;52.494;7.546;2023-07-16T03:58:11;100300.94;;;20.54;80.83
40788;BME280;26497;52.494;7.546;2023-07-16T04:00:38;100304.66;;;20.52;80.96
40788;BME280;26497;52.494;7.546;2023-07-16T04:03:08;100305.31;;;20.57;80.45
40788;BME280;26497;52.494;7.546;2023-07-16T04:05:35;100307.31;;;20.71;80.07
40788;BME280;26497;52.494;7.546;2023-07-16T04:08:03;100304.47;;;20.74;79.47
40788;BME280;26497;52.494;7.546;2023-07-16T04:10:33;100318.91;;;20.90;78.89
40788;BME280;26497;52.494;7.546;2023-07-16T04:13:03;100312.38;;;20.96;78.69
40788;BME280;26497;52.494;7.546;2023-07-16T04:15:30;100310.66;;;20.95;78.63
40788;BME280;26497;52.494;7.546;2023-07-16T04:17:57;100311.13;;;21.03;78.04
40788;BME280;26497;52.494;7.546;2023-07-16T04:20:25;100303.72;;;21.09;77.47
40788;BME280;26497;52.494;7.546;2023-07-16T04:22:52;100306.97;;;21.15;76.81
40788;BME280;26497;52.494;7.546;2023-07-16T04:25:19;100304.59;;;21.27;76.83
40788;BME280;26497;52.494;7.546;2023-07-16T04:27:46;100317.94;;;21.46;75.85
40788;BME280;26497;52.494;7.546;2023-07-16T04:30:13;100309.97;;;21.79;75.39
40788;BME280;26497;52.494;7.546;2023-07-16T04:32:40;100309.53;;;22.05;72.36
40788;BME280;26497;52.494;7.546;2023-07-16T04:35:08;100322.81;;;21.90;72.32
40788;BME280;26497;52.494;7.546;2023-07-16T04:37:38;100309.19;;;21.77;73.55
40788;BME280;26497;52.494;7.546;2023-07-16T04:40:07;100318.44;;;22.05;72.49
40788;BME280;26497;52.494;7.546;2023-07-16T04:42:35;100312.19;;;22.54;71.55
40788;BME280;26497;52.494;7.546;2023-07-16T04:45:02;100311.28;;;23.18;67.91
40788;BME280;26497;52.494;7.546;2023-07-16T04:47:29;100306.81;;;23.78;65.42
40788;BME280;26497;52.494;7.546;2023-07-16T04:49:58;100307.06;;;24.19;63.68
40788;BME280;26497;52.494;7.546;2023-07-16T04:52:25;100314.81;;;24.38;61.96
40788;BME280;26497;52.494;7.546;2023-07-16T04:54:53;100319.19;;;24.82;61.05
40788;BME280;26497;52.494;7.546;2023-07-16T04:57:20;100313.28;;;24.90;59.91
40788;BME280;26497;52.494;7.546;2023-07-16T04:59:47;100316.00;;;25.43;58.48
40788;BME280;26497;52.494;7.546;2023-07-16T05:02:14;100325.28;;;25.80;57.31
40788;BME280;26497;52.494;7.546;2023-07-16T05:04:43;100318.56;;;25.59;56.56
40788;BME280;26497;52.494;7.546;2023-07-16T05:07:13;100324.81;;;25.60;57.41
40788;BME280;26497;52.494;7.546;2023-07-16T05:09:40;100325.41;;;25.78;56.62
40788;BME280;26497;52.494;7.546;2023-07-16T05:12:09;100329.25;;;26.00;56.53
40788;BME280;26497;52.494;7.546;2023-07-16T05:14:44;100335.47;;;26.15;55.77
40788;BME280;26497;52.494;7.546;2023-07-16T05:17:11;100343.13;;;26.21;55.11
40788;BME280;26497;52.494;7.546;2023-07-16T05:19:38;100338.47;;;26.23;55.63
40788;BME280;26497;52.494;7.546;2023-07-16T05:22:06;100342.06;;;26.61;54.85
40788;BME280;26497;52.494;7.546;2023-07-16T05:24:33;100343.69;;;27.01;53.88
40788;BME280;26497;52.494;7.546;2023-07-16T05:27:00;100345.25;;;26.79;54.32
40788;BME280;26497;52.494;7.546;2023-07-16T05:29:29;100344.34;;;26.54;55.01
40788;BME280;26497;52.494;7.546;2023-07-16T05:31:56;100351.38;;;25.53;57.93
40788;BME280;26497;52.494;7.546;2023-07-16T05:34:23;100345.94;;;24.29;62.42
40788;BME280;26497;52.494;7.546;2023-07-16T05:36:53;100347.59;;;23.86;64.67
40788;BME280;26497;52.494;7.546;2023-07-16T05:43:02;100371.16;;;23.97;64.59
40788;BME280;26497;52.494;7.546;2023-07-16T05:45:30;100370.63;;;25.07;60.23
40788;BME280;26497;52.494;7.546;2023-07-16T05:47:57;100368.25;;;25.96;56.08
40788;BME280;26497;52.494;7.546;2023-07-16T05:50:24;100371.91;;;26.72;52.34
40788;BME280;26497;52.494;7.546;2023-07-16T05:52:51;100369.25;;;26.97;50.71
40788;BME280;26497;52.494;7.546;2023-07-16T05:55:18;100372.78;;;27.46;48.96
40788;BME280;26497;52.494;7.546;2023-07-16T05:57:45;100377.41;;;28.04;47.78
40788;BME280;26497;52.494;7.546;2023-07-16T06:00:12;100374.56;;;28.05;45.72
40788;BME280;26497;52.494;7.546;2023-07-16T06:02:42;100374.38;;;27.73;45.94
40788;BME280;26497;52.494;7.546;2023-07-16T06:05:09;100387.41;;;28.15;44.56
40788;BME280;26497;52.494;7.546;2023-07-16T06:07:36;100382.50;;;28.31;43.81
40788;BME280;26497;52.494;7.546;2023-07-16T06:10:04;100382.50;;;28.54;42.09
40788;BME280;26497;52.494;7.546;2023-07-16T06:12:31;100399.03;;;28.62;40.77
40788;BME280;26497;52.494;7.546;2023-07-16T06:14:59;100387.53;;;28.93;40.04
40788;BME280;26497;52.494;7.546;2023-07-16T06:17:26;100385.81;;;28.69;39.96
40788;BME280;26497;52.494;7.546;2023-07-16T06:19:54;100388.28;;;28.49;39.88
40788;BME280;26497;52.494;7.546;2023-07-16T06:22:23;100398.16;;;28.50;39.54
40788;BME280;26497;52.494;7.546;2023-07-16T06:24:50;100410.25;;;28.23;38.73
40788;BME280;26497;52.494;7.546;2023-07-16T06:27:17;100406.31;;;28.39;38.77
40788;BME280;26497;52.494;7.546;2023-07-16T06:29:44;100402.97;;;28.69;38.32
40788;BME280;26497;52.494;7.546;2023-07-16T06:32:11;100403.47;;;28.52;38.30
40788;BME280;26497;52.494;7.546;2023-07-16T06:34:38;100410.91;;;29.17;37.27
40788;BME280;26497;52.494;7.546;2023-07-16T06:37:06;100411.19;;;28.68;37.58
40788;BME280;26497;52.494;7.546;2023-07-16T06:39:33;100418.31;;;27.16;40.13
40788;BME280;26497;52.494;7.546;2023-07-16T06:42:00;100418.28;;;27.41;40.25
40788;BME280;26497;52.494;7.546;2023-07-16T06:44:36;100419.50;;;27.96;39.64
40788;BME280;26497;52.494;7.546;2023-07-16T06:47:04;100423.09;;;28.08;38.79
40788;BME280;26497;52.494;7.546;2023-07-16T06:49:31;100422.25;;;27.61;39.07
40788;BME280;26497;52.494;7.546;2023-07-16T06:52:00;100417.56;;;28.10;39.38
40788;BME280;26497;52.494;7.546;2023-07-16T06:54:29;100427.75;;;28.42;37.65
40788;BME280;26497;52.494;7.546;2023-07-16T06:56:56;100429.34;;;28.45;37.25
40788;BME280;26497;52.494;7.546;2023-07-16T06:59:23;100417.63;;;28.55;37.55
40788;BME280;26497;52.494;7.546;2023-07-16T07:01:50;100431.06;;;28.57;36.79
40788;BME280;26497;52.494;7.546;2023-07-16T07:04:17;100431.16;;;29.12;36.83
40788;BME280;26497;52.494;7.546;2023-07-16T07:06:44;100422.25;;;29.22;35.59
40788;BME280;26497;52.494;7.546;2023-07-16T07:09:11;100432.59;;;29.39;35.05
40788;BME280;26497;52.494;7.546;2023-07-16T07:11:39;100435.75;;;29.77;34.90
40788;BME280;26497;52.494;7.546;2023-07-16T07:14:06;100435.41;;;30.86;32.43
40788;BME280;26497;52.494;7.546;2023-07-16T07:16:33;100433.97;;;30.82;32.73
40788;BME280;26497;52.494;7.546;2023-07-16T07:19:00;100444.84;;;30.82;33.19
40788;BME280;26497;52.494;7.546;2023-07-16T07:21:28;100446.09;;;31.19;32.04
40788;BME280;26497;52.494;7.546;2023-07-16T07:23:55;100442.81;;;31.25;31.16
40788;BME280;26497;52.494;7.546;2023-07-16T07:26:22;100437.53;;;30.83;31.56
40788;BME280;26497;52.494;7.546;2023-07-16T07:28:50;100451.22;;;30.71;31.83
40788;BME280;26497;52.494;7.546;2023-07-16T07:31:17;100447.00;;;30.57;32.32
40788;BME280;26497;52.494;7.546;2023-07-16T07:33:44;100454.06;;;30.39;31.85
40788;BME280;26497;52.494;7.546;2023-07-16T07:36:13;100449.34;;;31.03;31.33
40788;BME280;26497;52.494;7.546;2023-07-16T07:38:40;100469.16;;;30.74;31.84
40788;BME280;26497;52.494;7.546;2023-07-16T07:41:08;100463.72;;;30.74;31.38
40788;BME280;26497;52.494;7.546;2023-07-16T07:43:35;100452.22;;;30.70;31.65
40788;BME280;26497;52.494;7.546;2023-07-16T07:46:03;100452.00;;;30.52;31.73
40788;BME280;26497;52.494;7.546;2023-07-16T07:48:31;100454.41;;;30.45;32.72
40788;BME280;26497;52.494;7.546;2023-07-16T07:50:58;100449.66;;;29.63;32.96
40788;BME280;26497;52.494;7.546;2023-07-16T07:53:25;100452.38;;;29.84;32.74
40788;BME280;26497;52.494;7.546;2023-07-16T07:55:52;100455.53;;;29.47;33.32
40788;BME280;26497;52.494;7.546;2023-07-16T07:58:21;100457.19;;;30.13;32.76
40788;BME280;26497;52.494;7.546;2023-07-16T08:00:48;100463.84;;;30.20;32.83
40788;BME280;26497;52.494;7.546;2023-07-16T08:03:16;100465.34;;;30.86;31.88
40788;BME280;26497;52.494;7.546;2023-07-16T08:05:43;100462.72;;;30.01;32.21
40788;BME280;26497;52.494;7.546;2023-07-16T08:08:12;100462.56;;;29.38;33.11
40788;BME280;26497;52.494;7.546;2023-07-16T08:10:39;100474.09;;;28.73;34.32
40788;BME280;26497;52.494;7.546;2023-07-16T08:13:07;100468.13;;;29.36;33.73
40788;BME280;26497;52.494;7.546;2023-07-16T08:15:34;100462.94;;;29.77;33.06
40788;BME280;26497;52.494;7.546;2023-07-16T08:18:01;100476.59;;;30.20;32.71
40788;BME280;26497;52.494;7.546;2023-07-16T08:20:29;100466.56;;;29.66;32.92
40788;BME280;26497;52.494;7.546;2023-07-16T08:22:56;100478.19;;;29.02;33.92
40788;BME280;26497;52.494;7.546;2023-07-16T08:25:23;100479.91;;;28.68;34.83
40788;BME280;26497;52.494;7.546;2023-07-16T08:27:52;100474.28;;;29.50;34.73
40788;BME280;26497;52.494;7.546;2023-07-16T08:30:19;100475.03;;;30.06;33.24
40788;BME280;26497;52.494;7.546;2023-07-16T08:32:46;100474.28;;;30.46;33.01
40788;BME280;26497;52.494;7.546;2023-07-16T08:35:13;100482.88;;;30.20;32.41
40788;BME280;26497;52.494;7.546;2023-07-16T08:37:43;100492.31;;;29.51;33.31
40788;BME280;26497;52.494;7.546;2023-07-16T08:40:12;100483.50;;;28.92;34.62
40788;BME280;26497;52.494;7.546;2023-07-16T08:42:40;100486.50;;;28.30;35.23
40788;BME280;26497;52.494;7.546;2023-07-16T08:45:10;100499.97;;;28.07;36.11
40788;BME280;26497;52.494;7.546;2023-07-16T08:47:38;100506.91;;;28.47;35.22
40788;BME280;26497;52.494;7.546;2023-07-16T08:50:07;100501.19;;;28.50;35.15
40788;BME280;26497;52.494;7.546;2023-07-16T08:52:34;100498.78;;;28.81;34.59
40788;BME280;26497;52.494;7.546;2023-07-16T08:55:03;100490.44;;;29.84;33.17
40788;BME280;26497;52.494;7.546;2023-07-16T08:57:30;100502.88;;;29.98;32.08
40788;BME280;26497;52.494;7.546;2023-07-16T08:59:58;100498.31;;;29.87;32.51
40788;BME280;26497;52.494;7.546;2023-07-16T09:02:26;100507.59;;;30.17;32.63
40788;BME280;26497;52.494;7.546;2023-07-16T09:04:54;100506.47;;;30.41;31.70
40788;BME280;26497;52.494;7.546;2023-07-16T09:07:21;100516.72;;;31.11;30.53
40788;BME280;26497;52.494;7.546;2023-07-16T09:09:55;100500.66;;;31.08;30.40
40788;BME280;26497;52.494;7.546;2023-07-16T09:12:26;100502.97;;;31.12;31.27
40788;BME280;26497;52.494;7.546;2023-07-16T09:14:54;100499.09;;;31.15;30.35
40788;BME280;26497;52.494;7.546;2023-07-16T09:17:22;100511.84;;;31.14;30.39
40788;BME280;26497;52.494;7.546;2023-07-16T09:19:50;100495.09;;;30.78;30.67
40788;BME280;26497;52.494;7.546;2023-07-16T09:22:17;100501.94;;;31.54;30.47
40788;BME280;26497;52.494;7.546;2023-07-16T09:24:45;100510.84;;;31.15;29.83
40788;BME280;26497;52.494;7.546;2023-07-16T09:27:13;100513.56;;;30.53;30.92
40788;BME280;26497;52.494;7.546;2023-07-16T09:29:42;100519.09;;;30.21;31.40
40788;BME280;26497;52.494;7.546;2023-07-16T09:32:09;100515.22;;;30.23;32.23
40788;BME280;26497;52.494;7.546;2023-07-16T09:34:36;100505.47;;;29.99;32.49
40788;BME280;26497;52.494;7.546;2023-07-16T09:37:05;100521.25;;;29.73;33.16
40788;BME280;26497;52.494;7.546;2023-07-16T09:39:32;100517.81;;;30.46;32.49
40788;BME280;26497;52.494;7.546;2023-07-16T09:42:00;100520.09;;;31.34;31.13
40788;BME280;26497;52.494;7.546;2023-07-16T09:44:31;100533.53;;;31.96;30.49
40788;BME280;26497;52.494;7.546;2023-07-16T09:47:00;100540.81;;;31.66;30.24
40788;BME280;26497;52.494;7.546;2023-07-16T09:49:28;100538.88;;;31.37;30.61
40788;BME280;26497;52.494;7.546;2023-07-16T09:51:57;100540.09;;;31.64;30.16
40788;BME280;26497;52.494;7.546;2023-07-16T09:54:25;100532.81;;;31.74;30.53
40788;BME280;26497;52.494;7.546;2023-07-16T09:56:56;100549.59;;;31.80;30.15
40788;BME280;26497;52.494;7.546;2023-07-16T09:59:28;100548.50;;;31.41;30.31
40788;BME280;26497;52.494;7.546;2023-07-16T10:01:56;100548.94;;;31.37;31.49
40788;BME280;26497;52.494;7.546;2023-07-16T10:04:25;100543.41;;;30.86;31.29
40788;BME280;26497;52.494;7.546;2023-07-16T10:06:54;100562.53;;;30.53;32.15
40788;BME280;26497;52.494;7.546;2023-07-16T10:09:40;100561.09;;;30.28;31.69
40788;BME280;26497;52.494;7.546;2023-07-16T10:12:15;100546.13;;;30.01;31.87
40788;BME280;26497;52.494;7.546;2023-07-16T10:14:45;100557.59;;;30.05;32.12
40788;BME280;26497;52.494;7.546;2023-07-16T10:17:14;100576.38;;;29.52;33.04
40788;BME280;26497;52.494;7.546;2023-07-16T10:19:50;100565.00;;;29.24;33.53
40788;BME280;26497;52.494;7.546;2023-07-16T10:22:18;100564.03;;;29.92;32.67
40788;BME280;26497;52.494;7.546;2023-07-16T10:24:52;100564.22;;;30.12;32.52
40788;BME280;26497;52.494;7.546;2023-07-16T10:27:30;100576.63;;;30.05;32.21
40788;BME280;26497;52.494;7.546;2023-07-16T10:29:59;100583.69;;;29.40;32.42
40788;BME280;26497;52.494;7.546;2023-07-16T10:32:29;100581.53;;;29.33;33.50
40788;BME280;26497;52.494;7.546;2023-07-16T10:34:58;100586.50;;;30.06;32.84
40788;BME280;26497;52.494;7.546;2023-07-16T10:37:26;100579.81;;;30.10;32.97
40788;BME280;26497;52.494;7.546;2023-07-16T10:39:55;100584.50;;;29.64;33.00
40788;BME280;26497;52.494;7.546;2023-07-16T10:42:24;100578.69;;;29.80;32.64
40788;BME280;26497;52.494;7.546;2023-07-16T10:44:52;100593.81;;;29.94;32.40
40788;BME280;26497;52.494;7.546;2023-07-16T10:47:22;100600.22;;;29.49;33.07
40788;BME280;26497;52.494;7.546;2023-07-16T10:49:50;100584.75;;;29.26;33.33
40788;BME280;26497;52.494;7.546;2023-07-16T10:52:20;100595.50;;;29.74;32.74
40788;BME280;26497;52.494;7.546;2023-07-16T10:54:47;100591.00;;;30.28;32.62
40788;BME280;26497;52.494;7.546;2023-07-16T10:57:14;100575.78;;;30.25;32.88
40788;BME280;26497;52.494;7.546;2023-07-16T10:59:43;100592.31;;;29.46;32.72
40788;BME280;26497;52.494;7.546;2023-07-16T11:02:12;100599.19;;;28.93;34.39
40788;BME280;26497;52.494;7.546;2023-07-16T11:04:40;100597.53;;;30.25;32.68
40788;BME280;26497;52.494;7.546;2023-07-16T11:07:08;100598.53;;;31.40;30.70
40788;BME280;26497;52.494;7.546;2023-07-16T11:09:42;100595.69;;;31.52;30.37
40788;BME280;26497;52.494;7.546;2023-07-16T11:12:12;100596.25;;;31.45;30.22
40788;BME280;26497;52.494;7.546;2023-07-16T11:14:47;100603.88;;;30.47;30.80
40788;BME280;26497;52.494;7.546;2023-07-16T11:17:14;100603.00;;;29.70;32.40
40788;BME280;26497;52.494;7.546;2023-07-16T11:19:45;100609.19;;;29.61;32.42
40788;BME280;26497;52.494;7.546;2023-07-16T11:22:13;100604.25;;;29.66;32.50
40788;BME280;26497;52.494;7.546;2023-07-16T11:24:43;100607.34;;;29.04;32.99
40788;BME280;26497;52.494;7.546;2023-07-16T11:27:15;100618.16;;;28.81;33.44
40788;BME280;26497;52.494;7.546;2023-07-16T11:29:46;100613.59;;;28.35;34.06
40788;BME280;26497;52.494;7.546;2023-07-16T11:32:26;100612.81;;;28.21;34.35
40788;BME280;26497;52.494;7.546;2023-07-16T11:34:54;100630.09;;;27.70;35.02
40788;BME280;26497;52.494;7.546;2023-07-16T11:37:22;100611.28;;;27.43;35.81
40788;BME280;26497;52.494;7.546;2023-07-16T11:39:50;100625.22;;;27.62;36.03
40788;BME280;26497;52.494;7.546;2023-07-16T11:42:23;100629.44;;;28.28;34.72
40788;BME280;26497;52.494;7.546;2023-07-16T11:44:51;100623.59;;;28.81;34.72
40788;BME280;26497;52.494;7.546;2023-07-16T11:47:18;100632.06;;;28.65;34.73
40788;BME280;26497;52.494;7.546;2023-07-16T11:49:45;100633.63;;;28.57;34.81
40788;BME280;26497;52.494;7.546;2023-07-16T11:52:12;100638.69;;;28.25;35.02
40788;BME280;26497;52.494;7.546;2023-07-16T11:54:39;100628.69;;;28.26;34.53
40788;BME280;26497;52.494;7.546;2023-07-16T11:57:08;100632.09;;;27.92;35.76
40788;BME280;26497;52.494;7.546;2023-07-16T11:59:35;100648.13;;;27.95;35.75
40788;BME280;26497;52.494;7.546;2023-07-16T12:02:02;100642.84;;;28.18;35.51
40788;BME280;26497;52.494;7.546;2023-07-16T12:04:29;100639.69;;;28.60;35.33
40788;BME280;26497;52.494;7.546;2023-07-16T12:06:59;100636.84;;;29.32;33.96
40788;BME280;26497;52.494;7.546;2023-07-16T12:09:26;100637.41;;;29.92;33.06
40788;BME280;26497;52.494;7.546;2023-07-16T12:11:53;100637.09;;;30.29;32.61
40788;BME280;26497;52.494;7.546;2023-07-16T12:14:21;100634.97;;;30.33;32.26
40788;BME280;26497;52.494;7.546;2023-07-16T12:16:48;100618.53;;;30.02;32.23
40788;BME280;26497;52.494;7.546;2023-07-16T12:19:16;100643.53;;;29.62;33.20
40788;BME280;26497;52.494;7.546;2023-07-16T12:21:43;100652.88;;;29.92;33.14
40788;BME280;26497;52.494;7.546;2023-07-16T12:24:10;100646.56;;;30.02;32.73
40788;BME280;26497;52.494;7.546;2023-07-16T12:26:37;100655.09;;;30.42;33.14
40788;BME280;26497;52.494;7.546;2023-07-16T12:29:04;100664.38;;;29.27;33.00
40788;BME280;26497;52.494;7.546;2023-07-16T12:31:33;100665.94;;;28.95;34.10
40788;BME280;26497;52.494;7.546;2023-07-16T12:34:01;100663.25;;;28.95;34.27
40788;BME280;26497;52.494;7.546;2023-07-16T12:36:28;100667.06;;;29.04;34.09
40788;BME280;26497;52.494;7.546;2023-07-16T12:38:55;100667.44;;;29.22;33.41
40788;BME280;26497;52.494;7.546;2023-07-16T12:41:22;100671.25;;;28.97;34.10
40788;BME280;26497;52.494;7.546;2023-07-16T12:43:49;100675.81;;;28.36;34.77
40788;BME280;26497;52.494;7.546;2023-07-16T12:46:16;100680.69;;;28.44;36.81
40788;BME280;26497;52.494;7.546;2023-07-16T12:48:44;100685.69;;;27.63;37.24
40788;BME280;26497;52.494;7.546;2023-07-16T12:51:11;100684.38;;;27.17;37.41
40788;BME280;26497;52.494;7.546;2023-07-16T12:53:38;100686.09;;;27.70;36.59
40788;BME280;26497;52.494;7.546;2023-07-16T12:56:06;100681.13;;;28.62;35.55
40788;BME280;26497;52.494;7.546;2023-07-16T12:58:32;100682.16;;;29.20;34.13